Time;durP1;ratioP1;P1;durP2;ratioP2;P2;SDS_P1;SDS_P2;PMS_P1;PMS_P2;Temp;Humidity;BMP_temperature;BMP_pressure;BME280_temperature;BME280_humidity;BME280_pressure;Samples;Min_cycle;Max_cycle;Signal;HPM_P1;HPM_P2
2023/03/25 00:00:14;;;;;;;5.20;0.77;;;;;;;11.47;81.59;99422.09;8220456;28;20074;-54
2023/03/25 00:04:16;;;;;;;3.60;0.82;;;;;;;11.50;81.30;99424.47;8245865;28;20488;-54
2023/03/25 00:08:16;;;;;;;6.40;1.20;;;;;;;11.59;82.05;99434.25;8250222;28;20043;-54
2023/03/25 00:12:17;;;;;;;7.90;1.77;;;;;;;11.56;81.08;99434.59;8249512;28;20042;-54
2023/03/25 00:16:17;;;;;;;6.90;1.00;;;;;;;11.78;78.74;99423.03;8237807;28;20126;-54
2023/03/25 00:20:19;;;;;;;4.47;0.93;;;;;;;11.80;78.76;99437.25;8232769;28;20521;-54
2023/03/25 00:24:19;;;;;;;5.72;1.42;;;;;;;11.83;78.47;99442.31;8230212;28;20493;-54
2023/03/25 00:28:20;;;;;;;1.90;0.70;;;;;;;11.70;79.67;99430.34;8231238;28;20051;-54
2023/03/25 00:32:20;;;;;;;3.70;0.70;;;;;;;11.66;79.57;99435.28;8226836;28;20073;-54
2023/03/25 00:36:21;;;;;;;3.78;0.70;;;;;;;11.64;79.24;99431.91;8233758;28;20034;-54
2023/03/25 00:40:23;;;;;;;4.28;1.05;;;;;;;11.63;79.75;99438.34;8226725;28;20034;-54
2023/03/25 00:44:23;;;;;;;4.07;0.80;;;;;;;11.61;80.74;99432.22;8229452;28;20039;-54
2023/03/25 00:48:26;;;;;;;3.58;0.85;;;;;;;11.60;81.22;99429.69;8232890;28;20125;-59
2023/03/25 00:52:26;;;;;;;2.50;0.60;;;;;;;11.58;81.23;99432.56;8229701;28;20604;-60
2023/03/25 00:56:28;;;;;;;2.80;0.63;;;;;;;11.56;81.34;99440.00;8228242;28;20394;-62
2023/03/25 01:00:28;;;;;;;3.40;0.80;;;;;;;11.53;81.43;99423.28;8227910;28;20472;-55
2023/03/25 01:04:29;;;;;;;1.95;0.70;;;;;;;11.48;81.52;99425.66;8227318;28;20161;-56
2023/03/25 01:08:30;;;;;;;2.95;0.65;;;;;;;11.50;80.93;99429.88;8227524;28;20054;-55
2023/03/25 01:12:32;;;;;;;4.93;0.50;;;;;;;11.44;81.11;99430.56;8228201;28;20395;-55
2023/03/25 01:16:33;;;;;;;2.35;0.60;;;;;;;11.38;81.03;99425.84;8232944;28;20042;-55
2023/03/25 01:20:34;;;;;;;3.65;0.60;;;;;;;11.42;80.98;99429.91;8227910;28;20109;-55
2023/03/25 01:24:34;;;;;;;4.95;0.40;;;;;;;11.43;80.52;99423.47;8227175;28;20122;-55
2023/03/25 01:28:35;;;;;;;6.10;0.77;;;;;;;11.50;80.36;99429.88;8253126;28;20046;-55
2023/03/25 01:32:38;;;;;;;4.00;0.65;;;;;;;11.40;81.37;99429.22;8236609;28;20126;-55
2023/03/25 01:36:39;;;;;;;2.92;0.50;;;;;;;11.42;81.43;99431.75;8237892;28;20042;-55
2023/03/25 01:40:39;;;;;;;3.40;0.70;;;;;;;11.39;82.92;99421.28;8237819;28;20097;-55
2023/03/25 01:44:46;;;;;;;1.35;0.60;;;;;;;11.22;85.98;99417.75;8240272;28;20038;-55
2023/03/25 01:48:48;;;;;;;2.90;0.73;;;;;;;11.17;87.91;99416.59;8257645;28;20505;-55
2023/03/25 01:52:51;;;;;;;2.80;0.70;;;;;;;11.16;87.89;99418.44;8263424;28;20042;-55
2023/03/25 01:56:53;;;;;;;2.40;0.73;;;;;;;11.13;89.05;99426.91;8258548;28;20073;-56
2023/03/25 02:00:54;;;;;;;6.47;0.90;;;;;;;11.02;90.66;99419.16;8259888;28;20050;-56
2023/03/25 02:05:00;;;;;;;2.88;0.60;;;;;;;10.98;91.87;99403.44;8252859;28;20034;-56
2023/03/25 02:09:05;;;;;;;3.85;0.73;;;;;;;10.94;93.97;99410.19;8257038;28;20053;-55
2023/03/25 02:13:06;;;;;;;;;;;;;;;10.67;95.58;99408.66;8258387;28;20512;-56
2023/03/25 02:17:23;;;;;;;5.10;0.80;;;;;;;10.53;97.10;99413.91;8242142;28;20426;-55
2023/03/25 02:22:04;;;;;;;2.33;0.70;;;;;;;10.42;98.50;99404.25;8233400;28;20034;-55
2023/03/25 02:26:48;;;;;;;3.70;1.20;;;;;;;10.38;98.43;99418.25;8241764;28;20508;-56
2023/03/25 02:31:11;;;;;;;2.97;0.80;;;;;;;10.31;98.98;99407.25;8231946;28;20050;-55
2023/03/25 02:35:40;;;;;;;4.35;1.58;;;;;;;10.29;97.49;99414.72;8242647;28;20493;-56
2023/03/25 02:39:51;;;;;;;4.53;1.13;;;;;;;10.33;95.09;99410.66;8235764;28;20374;-55
2023/03/25 02:44:15;;;;;;;9.73;1.15;;;;;;;10.48;93.07;99406.28;8236233;28;20086;-60
2023/03/25 02:48:24;;;;;;;6.15;1.70;;;;;;;10.57;92.21;99410.69;8259035;28;20097;-61
2023/03/25 02:52:30;;;;;;;5.32;1.05;;;;;;;10.71;90.41;99410.03;8236549;28;20035;-60
2023/03/25 02:56:33;;;;;;;5.25;1.15;;;;;;;10.83;88.93;99405.13;8236080;28;20548;-61
2023/03/25 03:00:37;;;;;;;7.88;1.30;;;;;;;10.90;88.38;99403.44;8236330;28;20050;-61
2023/03/25 03:04:57;;;;;;;6.20;1.20;;;;;;;10.95;87.87;99407.31;8235350;28;20244;-61
2023/03/25 03:09:12;;;;;;;4.93;1.02;;;;;;;10.91;87.88;99397.00;8239840;28;20042;-55
2023/03/25 03:13:42;;;;;;;6.05;0.85;;;;;;;10.78;89.51;99405.63;8235382;28;20053;-56
2023/03/25 03:18:00;;;;;;;4.07;0.93;;;;;;;10.60;89.90;99396.00;8239481;28;20035;-56
2023/03/25 03:22:13;;;;;;;7.57;0.98;;;;;;;10.54;90.50;99400.22;8235763;28;20045;-55
2023/03/25 03:30:50;;;;;;;6.28;1.13;;;;;;;10.37;91.58;99401.19;8390520;27;20391;-56
2023/03/25 03:34:55;;;;;;;5.50;0.70;;;;;;;10.34;90.74;99406.09;8378723;28;20095;-55
2023/03/25 03:39:04;;;;;;;;;;;;;;;10.33;90.33;99413.34;8408894;27;20040;-55
2023/03/25 03:43:13;;;;;;;4.97;1.00;;;;;;;10.44;88.83;99407.66;8412550;27;19920;-56
2023/03/25 03:47:19;;;;;;;6.18;0.85;;;;;;;10.53;87.70;99406.66;8404102;28;20051;-60
2023/03/25 03:51:28;;;;;;;5.25;1.20;;;;;;;10.53;87.77;99412.06;8411305;28;20512;-60
2023/03/25 03:55:36;;;;;;;2.50;0.80;;;;;;;10.55;86.49;99428.09;8414329;28;20119;-61
2023/03/25 03:59:52;;;;;;;8.73;0.93;;;;;;;10.64;85.84;99425.22;8413942;28;20068;-60
2023/03/25 04:03:58;;;;;;;6.00;1.15;;;;;;;10.62;85.46;99424.56;8398236;28;20422;-59
2023/03/25 04:08:25;;;;;;;8.23;1.02;;;;;;;10.55;85.50;99423.50;8380289;28;20541;-60
2023/03/25 04:12:28;;;;;;;5.00;1.02;;;;;;;10.54;85.41;99435.34;8411747;28;20438;-62
2023/03/25 04:16:31;;;;;;;5.72;0.90;;;;;;;10.72;83.93;99422.53;8413725;28;20043;-59
2023/03/25 04:20:33;;;;;;;4.95;0.85;;;;;;;10.79;84.45;99434.34;8413438;28;20082;-59
2023/03/25 04:24:36;;;;;;;7.30;1.05;;;;;;;10.80;83.93;99419.81;8380859;28;20032;-60
2023/03/25 04:28:36;;;;;;;3.55;1.15;;;;;;;10.89;83.50;99423.38;8376996;28;20040;-59
2023/03/25 04:32:37;;;;;;;3.80;1.35;;;;;;;10.93;83.10;99412.06;8388240;28;20529;-59
2023/03/25 04:36:37;;;;;;;5.78;1.05;;;;;;;10.96;81.83;99419.81;8413720;28;20040;-60
2023/03/25 04:40:39;;;;;;;5.43;0.80;;;;;;;10.97;81.22;99416.09;8399259;28;20056;-60
2023/03/25 04:44:39;;;;;;;4.55;1.15;;;;;;;11.02;81.31;99419.16;8391361;28;20037;-60
2023/03/25 04:48:43;;;;;;;8.75;1.33;;;;;;;11.01;81.34;99411.22;8391403;28;20047;-59
2023/03/25 04:52:44;;;;;;;6.68;1.23;;;;;;;11.03;81.02;99410.00;8368217;28;20048;-60
2023/03/25 04:56:46;;;;;;;5.40;0.93;;;;;;;11.09;80.69;99405.78;8357843;28;20128;-60
2023/03/25 05:00:50;;;;;;;6.50;0.90;;;;;;;11.04;80.52;99406.28;8357406;28;20044;-60
2023/03/25 05:04:52;;;;;;;7.53;1.38;;;;;;;11.13;79.80;99405.25;8355490;28;20384;-60
2023/03/25 05:08:53;;;;;;;6.10;0.90;;;;;;;11.08;80.31;99401.38;8387635;28;20033;-60
2023/03/25 05:12:59;;;;;;;8.23;1.52;;;;;;;11.03;80.18;99410.00;8388685;28;20041;-60
2023/03/25 05:16:59;;;;;;;6.05;0.98;;;;;;;10.95;80.96;99406.47;8390223;28;20036;-60
2023/03/25 05:21:01;;;;;;;10.73;1.23;;;;;;;11.00;80.91;99415.75;8387429;28;20552;-60
2023/03/25 05:25:06;;;;;;;6.43;1.20;;;;;;;11.10;80.62;99416.41;8356554;28;20048;-60
2023/03/25 05:29:12;;;;;;;11.30;1.25;;;;;;;11.07;80.61;99411.34;8355915;28;20087;-60
2023/03/25 05:33:15;;;;;;;8.35;1.08;;;;;;;11.12;80.23;99406.28;8354459;28;20037;-60
2023/03/25 05:37:16;;;;;;;10.50;1.17;;;;;;;11.14;80.60;99411.53;8356904;28;20061;-60
2023/03/25 05:41:16;;;;;;;12.25;1.73;;;;;;;11.16;79.70;99404.09;8356537;28;20040;-60
2023/03/25 05:45:17;;;;;;;12.32;1.70;;;;;;;11.26;79.26;99408.28;8356851;28;20025;-60
2023/03/25 05:49:18;;;;;;;11.55;1.40;;;;;;;11.34;78.58;99402.84;8353834;28;20051;-60
2023/03/25 05:53:19;;;;;;;10.88;1.77;;;;;;;11.42;78.06;99404.69;8353566;28;20095;-60
2023/03/25 05:57:20;;;;;;;5.88;1.10;;;;;;;11.40;78.12;99406.72;8355761;28;20398;-61
2023/03/25 06:01:21;;;;;;;11.32;1.35;;;;;;;11.43;77.76;99406.38;8352421;28;20104;-61
2023/03/25 06:05:22;;;;;;;9.25;1.50;;;;;;;11.41;78.35;99414.66;8349201;28;20048;-61
2023/03/25 06:09:22;;;;;;;10.13;1.35;;;;;;;11.47;77.77;99427.50;8332083;28;20037;-61
2023/03/25 06:13:24;;;;;;;11.50;1.83;;;;;;;11.50;77.27;99419.03;8354131;28;20529;-61
2023/03/25 06:17:24;;;;;;;9.90;1.92;;;;;;;11.54;77.48;99415.00;8359442;28;20032;-61
2023/03/25 06:21:27;;;;;;;8.93;1.10;;;;;;;11.60;76.95;99414.31;8358343;28;20082;-61
2023/03/25 06:25:29;;;;;;;11.48;1.58;;;;;;;11.65;76.65;99419.22;8354760;28;20029;-61
2023/03/25 06:29:30;;;;;;;5.30;1.23;;;;;;;11.75;76.21;99414.44;8354473;28;20522;-61
2023/03/25 06:33:30;;;;;;;5.82;0.90;;;;;;;11.79;76.62;99434.72;8354778;28;20464;-61
2023/03/25 06:37:31;;;;;;;7.38;1.50;;;;;;;11.85;76.99;99426.75;8353182;28;20644;-61
2023/03/25 06:41:36;;;;;;;4.43;1.00;;;;;;;11.80;78.32;99442.69;8367792;28;20451;-61
2023/03/25 06:45:50;;;;;;;10.10;1.50;;;;;;;11.37;83.90;99461.19;8347416;28;20087;-61
2023/03/25 06:50:03;;;;;;;9.35;1.05;;;;;;;10.94;87.78;99459.72;8369524;28;20037;-61
2023/03/25 06:54:04;;;;;;;10.02;1.00;;;;;;;10.75;90.84;99457.34;8365963;28;20037;-61
2023/03/25 06:58:05;;;;;;;8.65;1.20;;;;;;;10.70;92.88;99454.28;8370820;28;20033;-60
2023/03/25 07:02:05;;;;;;;6.35;1.20;;;;;;;10.73;91.59;99456.66;8339678;28;20504;-60
2023/03/25 07:06:06;;;;;;;2.53;0.85;;;;;;;10.78;91.15;99443.47;8342995;28;20412;-60
2023/03/25 07:10:07;;;;;;;6.07;1.33;;;;;;;10.81;90.64;99443.16;8320966;28;20037;-60
2023/03/25 07:14:08;;;;;;;8.07;1.33;;;;;;;10.97;91.26;99442.28;8353966;28;20044;-60
2023/03/25 07:18:09;;;;;;;6.93;1.13;;;;;;;11.25;88.96;99441.75;8354121;28;20416;-60
2023/03/25 07:22:09;;;;;;;6.75;1.40;;;;;;;11.37;87.55;99439.53;8349667;28;20041;-60
2023/03/25 07:26:12;;;;;;;5.70;0.80;;;;;;;11.32;86.57;99442.75;8350681;28;20491;-60
2023/03/25 07:30:12;;;;;;;11.35;1.30;;;;;;;11.26;86.33;99442.63;8351730;28;20037;-60
2023/03/25 07:34:13;;;;;;;6.95;1.65;;;;;;;11.22;87.31;99452.94;8368781;28;20037;-59
2023/03/25 07:38:14;;;;;;;8.90;0.68;;;;;;;11.18;86.34;99450.72;8359797;28;20048;-60
2023/03/25 07:42:14;;;;;;;4.72;0.90;;;;;;;11.22;87.05;99454.78;8350854;28;20033;-60
2023/03/25 07:46:35;;;;;;;6.32;0.82;;;;;;;11.26;87.77;99448.84;8373201;28;20450;-60
2023/03/25 07:50:35;;;;;;;5.28;1.00;;;;;;;11.29;86.72;99463.91;8385833;28;20036;-60
2023/03/25 07:54:37;;;;;;;5.25;0.82;;;;;;;11.26;86.44;99448.84;8341339;28;20520;-60
2023/03/25 07:58:37;;;;;;;5.90;1.00;;;;;;;11.34;84.42;99467.78;8356725;28;20148;-60
2023/03/25 08:02:38;;;;;;;4.65;0.95;;;;;;;11.42;84.10;99469.66;8356621;28;20033;-61
2023/03/25 08:06:39;;;;;;;4.93;1.00;;;;;;;11.56;82.06;99455.44;8370169;28;20029;-53
2023/03/25 08:10:42;;;;;;;6.25;1.50;;;;;;;11.65;82.25;99476.91;8360801;28;20043;-54
2023/03/25 08:14:42;;;;;;;8.60;0.98;;;;;;;12.07;81.03;99482.00;8350338;28;20518;-56
2023/03/25 08:18:51;;;;;;;5.03;0.88;;;;;;;12.56;79.61;99483.47;8391084;28;20427;-55
2023/03/25 08:22:52;;;;;;;9.20;1.30;;;;;;;12.83;77.82;99511.94;8373361;28;20083;-55
2023/03/25 08:26:53;;;;;;;5.88;1.15;;;;;;;12.90;76.24;99513.75;8350960;28;20151;-55
2023/03/25 08:30:54;;;;;;;12.43;1.00;;;;;;;12.67;75.48;99515.63;8373936;28;20063;-55
2023/03/25 08:34:54;;;;;;;6.85;1.58;;;;;;;12.82;75.16;99504.84;8370857;28;20051;-54
2023/03/25 08:38:55;;;;;;;9.75;1.20;;;;;;;12.81;75.02;99519.44;8367692;28;20503;-54
2023/03/25 08:42:56;;;;;;;10.20;1.73;;;;;;;12.77;73.52;99504.53;8376629;28;20041;-54
2023/03/25 08:46:56;;;;;;;12.07;1.80;;;;;;;12.84;74.32;99514.47;8378835;28;20036;-54
2023/03/25 08:50:57;;;;;;;9.88;1.98;;;;;;;12.65;74.22;99514.09;8380886;28;20328;-55
2023/03/25 08:54:57;;;;;;;12.25;1.83;;;;;;;12.50;74.41;99521.31;8348650;28;20078;-55
2023/03/25 08:58:58;;;;;;;6.03;1.38;;;;;;;12.47;74.93;99521.66;8351398;28;20049;-54
2023/03/25 09:02:59;;;;;;;7.25;1.50;;;;;;;12.60;75.75;99521.94;8368757;28;20184;-54
2023/03/25 09:07:00;;;;;;;12.95;1.77;;;;;;;12.72;74.07;99520.50;8362426;28;20150;-54
2023/03/25 09:11:00;;;;;;;10.57;1.30;;;;;;;12.98;73.30;99526.41;8354566;28;20041;-54
2023/03/25 09:15:01;;;;;;;12.98;1.60;;;;;;;13.27;73.16;99532.03;8366598;28;20383;-54
2023/03/25 09:19:01;;;;;;;7.13;1.10;;;;;;;13.21;73.82;99538.19;8338979;28;20126;-53
2023/03/25 09:23:02;;;;;;;7.28;1.23;;;;;;;13.13;72.40;99536.38;8355190;28;20428;-54
2023/03/25 09:27:03;;;;;;;7.55;1.33;;;;;;;13.18;72.49;99538.53;8356453;28;20061;-54
2023/03/25 09:31:03;;;;;;;7.38;1.08;;;;;;;13.18;71.35;99527.69;8350745;28;20333;-54
2023/03/25 09:35:04;;;;;;;8.15;1.38;;;;;;;13.42;71.93;99522.88;8348711;28;20392;-54
2023/03/25 09:39:04;;;;;;;14.02;1.58;;;;;;;13.54;71.97;99534.13;8350804;28;20727;-54
2023/03/25 09:43:30;;;;;;;12.07;1.77;;;;;;;13.62;72.53;99531.38;8349029;28;20048;-54
2023/03/25 09:47:33;;;;;;;8.20;2.10;;;;;;;14.56;71.87;99526.94;8355441;28;20045;-55
2023/03/25 09:51:35;;;;;;;6.10;1.10;;;;;;;15.37;64.54;99537.50;8353516;28;20510;-54
2023/03/25 09:55:40;;;;;;;6.45;1.30;;;;;;;14.64;67.23;99537.69;8370111;28;20036;-54
2023/03/25 09:59:47;;;;;;;9.95;1.48;;;;;;;14.17;68.29;99537.25;8360080;28;20743;-54
2023/03/25 10:04:28;;;;;;;10.80;1.77;;;;;;;13.66;69.74;99543.53;8334512;28;20037;-54
2023/03/25 10:09:00;;;;;;;9.38;1.92;;;;;;;13.30;71.73;99543.34;8351414;28;20119;-54
2023/03/25 10:13:21;;;;;;;10.18;1.67;;;;;;;12.90;74.10;99545.50;8368598;28;20041;-54
2023/03/25 10:21:52;;;;;;;13.50;1.85;;;;;;;12.70;78.55;99549.66;8308848;28;20382;-58
2023/03/25 10:26:01;;;;;;;12.68;1.63;;;;;;;13.49;74.78;99544.72;8310771;28;20132;-61
2023/03/25 10:30:12;;;;;;;10.45;1.95;;;;;;;14.34;70.71;99555.09;8309312;28;20053;-61
2023/03/25 10:34:17;;;;;;;17.95;1.95;;;;;;;14.14;69.26;99548.47;8290441;28;20503;-60
2023/03/25 10:38:22;;;;;;;12.73;2.25;;;;;;;13.85;70.77;99543.03;8276591;28;20034;-59
2023/03/25 10:42:30;;;;;;;9.27;1.65;;;;;;;13.67;71.31;99545.25;8309178;28;20042;-58
2023/03/25 10:46:46;;;;;;;18.48;2.10;;;;;;;13.02;78.19;99572.03;8288908;28;20460;-59
2023/03/25 10:50:49;;;;;;;13.73;2.05;;;;;;;12.73;80.88;99576.41;8279588;28;20054;-59
2023/03/25 10:54:53;;;;;;;8.82;1.77;;;;;;;12.93;78.26;99566.84;8288327;28;20038;-59
2023/03/25 10:58:55;;;;;;;;;;;;;;;12.87;78.35;99567.53;8281682;28;20547;-59
2023/03/25 11:02:55;;;;;;;9.27;1.73;;;;;;;13.35;76.81;99550.94;8272516;28;19937;-59
2023/03/25 11:06:58;;;;;;;9.95;1.50;;;;;;;14.67;69.58;99531.88;8276722;28;20038;-59
2023/03/25 11:10:59;;;;;;;10.00;1.35;;;;;;;17.73;64.06;99545.88;8288925;28;20045;-60
2023/03/25 11:15:01;;;;;;;8.35;1.20;;;;;;;16.00;64.88;99544.72;8268989;28;20034;-59
2023/03/25 11:19:04;;;;;;;10.52;1.20;;;;;;;15.72;64.56;99547.47;8278616;28;20125;-59
2023/03/25 11:23:13;;;;;;;10.95;1.70;;;;;;;15.11;66.03;99548.94;8291365;28;20038;-59
2023/03/25 11:27:19;;;;;;;8.35;1.17;;;;;;;15.43;65.68;99553.91;8279272;28;20102;-59
2023/03/25 11:31:32;;;;;;;9.05;1.33;;;;;;;16.31;64.40;99547.91;8277535;28;20042;-59
2023/03/25 11:35:41;;;;;;;4.13;1.02;;;;;;;18.86;57.63;99550.72;8245975;28;20049;-59
2023/03/25 11:39:42;;;;;;;4.93;1.15;;;;;;;17.81;59.09;99526.53;8250006;28;20121;-60
2023/03/25 11:43:47;;;;;;;7.43;1.30;;;;;;;17.98;59.07;99549.66;8244702;28;20049;-59
2023/03/25 11:47:48;;;;;;;7.03;1.13;;;;;;;18.14;58.10;99539.09;8246497;28;20062;-59
2023/03/25 11:51:56;;;;;;;6.13;1.02;;;;;;;18.12;58.28;99534.91;8261020;28;20139;-60
2023/03/25 11:56:03;;;;;;;9.38;1.20;;;;;;;17.92;57.74;99523.13;8257180;28;20122;-59
2023/03/25 12:00:26;;;;;;;8.75;1.27;;;;;;;17.50;58.36;99518.94;8248211;28;20659;-60
2023/03/25 12:04:26;;;;;;;7.35;1.10;;;;;;;19.25;55.66;99528.59;8261293;28;20038;-60
2023/03/25 12:08:30;;;;;;;8.23;1.33;;;;;;;20.05;54.11;99513.22;8261489;28;20512;-60
2023/03/25 12:13:11;;;;;;;7.73;1.37;;;;;;;20.12;53.85;99514.00;8255384;28;20050;-60
2023/03/25 12:17:41;;;;;;;9.73;1.35;;;;;;;20.43;51.77;99511.19;8240340;28;20073;-55
2023/03/25 12:22:08;;;;;;;4.68;1.08;;;;;;;19.70;53.03;99501.13;8245484;28;20432;-55
2023/03/25 12:26:15;;;;;;;8.93;1.80;;;;;;;19.92;53.67;99491.41;8239604;28;20496;-54
2023/03/25 12:30:55;;;;;;;5.43;1.20;;;;;;;19.60;52.60;99495.31;8220065;28;20050;-54
2023/03/25 12:35:10;;;;;;;9.52;1.35;;;;;;;19.38;52.83;99506.63;8246882;28;20045;-55
2023/03/25 12:39:42;;;;;;;7.20;1.55;;;;;;;19.32;53.69;99499.28;8248370;28;20067;-55
2023/03/25 12:48:32;;;;;;;6.90;0.88;;;;;;;18.55;54.62;99487.69;8307557;28;20823;-54
2023/03/25 12:52:49;;;;;;;12.43;1.10;;;;;;;17.12;58.31;99495.97;8310866;28;20092;-53
2023/03/25 12:57:08;;;;;;;9.25;1.50;;;;;;;16.11;60.57;99486.91;8314626;28;20038;-55
2023/03/25 13:01:48;;;;;;;8.25;1.20;;;;;;;16.10;61.88;99475.16;8305693;28;20580;-55
2023/03/25 13:06:16;;;;;;;11.40;1.52;;;;;;;16.44;60.71;99482.53;8304634;28;20046;-56
2023/03/25 13:10:21;;;;;;;11.48;1.30;;;;;;;16.92;58.95;99470.47;8301077;28;20053;-56
2023/03/25 13:14:32;;;;;;;6.15;1.50;;;;;;;16.71;56.01;99479.66;8309548;28;20478;-55
2023/03/25 13:18:37;;;;;;;6.60;1.00;;;;;;;16.23;57.16;99483.44;8306156;28;20575;-55
2023/03/25 13:22:43;;;;;;;8.93;1.23;;;;;;;16.09;58.44;99478.09;8337779;28;20046;-61
2023/03/25 13:26:47;;;;;;;6.15;1.48;;;;;;;16.03;58.71;99497.97;8312721;28;20516;-60
2023/03/25 13:30:49;;;;;;;10.07;1.52;;;;;;;15.76;60.44;99505.13;8304873;28;20117;-61
2023/03/25 13:35:14;;;;;;;8.75;1.33;;;;;;;14.85;63.06;99498.81;8309247;28;20041;-61
2023/03/25 13:39:22;;;;;;;8.70;1.20;;;;;;;13.90;72.73;99548.75;8312958;28;20045;-61
2023/03/25 13:43:30;;;;;;;6.68;1.30;;;;;;;13.00;78.85;99576.81;8311837;28;20049;-61
2023/03/25 13:47:42;;;;;;;5.85;1.40;;;;;;;12.53;81.29;99567.88;8313806;28;20047;-61
2023/03/25 13:51:42;;;;;;;6.15;1.48;;;;;;;12.42;84.79;99586.38;8313124;28;20444;-60
2023/03/25 13:55:53;;;;;;;12.30;1.67;;;;;;;12.22;86.79;99626.59;8311092;28;20081;-60
2023/03/25 14:00:35;;;;;;;6.90;1.50;;;;;;;11.75;88.83;99599.38;8284225;28;20033;-61
2023/03/25 14:05:12;;;;;;;10.82;1.45;;;;;;;11.56;91.17;99574.53;8276564;28;20076;-60
2023/03/25 14:09:41;;;;;;;5.75;0.98;;;;;;;11.86;92.43;99569.25;8282003;28;20037;-61
2023/03/25 14:13:50;;;;;;;3.83;1.00;;;;;;;12.44;88.82;99570.81;8306964;28;20125;-58
2023/03/25 14:17:53;;;;;;;8.15;1.25;;;;;;;12.87;86.47;99572.97;8285836;28;20042;-60
2023/03/25 14:21:53;;;;;;;5.53;1.00;;;;;;;13.24;86.12;99560.34;8288255;28;20073;-60
2023/03/25 14:25:58;;;;;;;3.10;1.25;;;;;;;13.40;84.77;99553.97;8288485;28;20080;-54
2023/03/25 14:34:22;;;;;;;8.10;1.60;;;;;;;13.38;80.33;99569.59;8405664;27;20960;-59
2023/03/25 14:38:50;;;;;;;4.90;1.33;;;;;;;13.62;83.75;99574.81;8389492;27;20040;-59
2023/03/25 14:42:59;;;;;;;5.07;1.10;;;;;;;13.87;81.77;99562.69;8394022;27;20052;-55
2023/03/25 14:51:33;;;;;;;10.52;1.50;;;;;;;14.02;78.42;99547.25;8308950;28;20395;-56
2023/03/25 14:55:40;;;;;;;9.90;1.40;;;;;;;14.07;78.84;99539.41;8285028;28;20065;-55
2023/03/25 14:59:47;;;;;;;10.48;1.85;;;;;;;14.11;77.57;99553.44;8284087;28;20533;-57
2023/03/25 15:03:49;;;;;;;8.40;1.85;;;;;;;14.13;78.77;99557.69;8250580;28;20045;-56
2023/03/25 15:08:09;;;;;;;11.07;1.52;;;;;;;13.84;78.57;99553.06;8247862;28;20042;-58
2023/03/25 15:12:15;;;;;;;11.05;1.63;;;;;;;13.84;78.44;99553.06;8240608;28;20039;-59
2023/03/25 15:16:26;;;;;;;8.90;1.85;;;;;;;14.01;77.31;99548.28;8277169;28;20696;-58
2023/03/25 15:20:30;;;;;;;9.57;1.92;;;;;;;14.51;74.77;99539.41;8277338;28;20042;-58
2023/03/25 15:24:33;;;;;;;14.15;2.10;;;;;;;14.82;73.70;99532.69;8283627;28;20085;-59
2023/03/25 15:33:52;;;;;;;8.57;1.60;;;;;;;14.40;68.02;99534.47;8363665;27;20401;-53
2023/03/25 15:38:17;;;;;;;5.68;1.00;;;;;;;14.50;67.24;99530.41;8350751;28;20547;-53
2023/03/25 15:47:01;;;;;;;10.57;1.20;;;;;;;14.56;68.20;99510.63;8344247;27;20376;-54
2023/03/25 15:51:31;;;;;;;11.52;1.92;;;;;;;14.64;67.07;99507.78;8335361;28;20044;-53
2023/03/25 15:55:38;;;;;;;7.32;1.13;;;;;;;14.75;66.50;99504.56;8345454;28;20555;-52
2023/03/25 15:59:43;;;;;;;12.15;1.30;;;;;;;14.89;65.99;99522.75;8332022;28;20041;-52
2023/03/25 16:03:44;;;;;;;10.40;2.00;;;;;;;14.93;66.11;99518.59;8323922;28;20041;-53
2023/03/25 16:07:45;;;;;;;8.65;1.63;;;;;;;14.98;63.85;99520.72;8344251;28;20053;-54
2023/03/25 16:11:46;;;;;;;8.10;1.35;;;;;;;14.85;65.18;99526.03;8344527;28;20107;-54
2023/03/25 16:15:47;;;;;;;8.05;1.30;;;;;;;14.69;63.62;99516.22;8307609;28;20069;-54
2023/03/25 16:19:52;;;;;;;11.70;1.65;;;;;;;14.59;64.03;99521.13;8309540;28;20092;-54
2023/03/25 16:23:55;;;;;;;10.25;1.23;;;;;;;14.60;64.89;99528.22;8309800;28;20037;-53
2023/03/25 16:27:56;;;;;;;9.35;1.70;;;;;;;14.55;63.63;99525.22;8311474;28;20049;-53
2023/03/25 16:32:00;;;;;;;6.65;1.35;;;;;;;14.45;64.55;99535.56;8307488;28;20042;-53
2023/03/25 16:36:05;;;;;;;9.15;1.17;;;;;;;14.36;63.85;99530.44;8317107;28;20129;-53
2023/03/25 16:40:22;;;;;;;8.20;1.40;;;;;;;14.27;64.46;99535.09;8327392;28;20065;-52
2023/03/25 16:44:23;;;;;;;9.70;1.50;;;;;;;14.16;65.19;99543.72;8340744;28;20049;-57
2023/03/25 16:48:41;;;;;;;5.95;1.33;;;;;;;14.20;65.46;99553.19;8323564;28;20037;-57
2023/03/25 16:52:41;;;;;;;8.32;1.55;;;;;;;13.90;69.54;99567.75;8367847;28;20136;-59
2023/03/25 16:56:42;;;;;;;7.68;2.03;;;;;;;13.28;74.96;99590.69;8319184;28;20038;-58
2023/03/25 17:00:46;;;;;;;12.57;1.80;;;;;;;13.23;74.21;99590.38;8297995;28;20044;-57
2023/03/25 17:04:47;;;;;;;10.73;1.83;;;;;;;13.07;74.50;99601.34;8312741;28;20046;-60
2023/03/25 17:08:51;;;;;;;10.73;1.88;;;;;;;13.09;74.60;99605.56;8312634;28;20072;-59
2023/03/25 17:12:56;;;;;;;6.05;1.60;;;;;;;13.10;75.63;99617.28;8322688;28;20047;-57
2023/03/25 17:17:02;;;;;;;9.43;1.63;;;;;;;12.73;78.34;99611.69;8280894;28;20500;-57
2023/03/25 17:21:10;;;;;;;10.00;1.38;;;;;;;12.44;82.29;99603.34;8312263;28;20505;-60
2023/03/25 17:25:23;;;;;;;12.98;2.33;;;;;;;12.23;83.80;99616.59;8308036;28;20045;-58
2023/03/25 17:29:23;;;;;;;11.73;1.88;;;;;;;12.17;84.59;99611.88;8318548;28;20030;-57
2023/03/25 17:37:37;;;;;;;14.18;2.20;;;;;;;12.06;83.83;99625.78;8340042;27;20838;-59
2023/03/25 17:41:38;;;;;;;10.93;2.08;;;;;;;12.07;83.71;99622.88;8344517;28;20625;-58
2023/03/25 17:45:39;;;;;;;14.20;2.13;;;;;;;12.07;83.65;99625.59;8331993;28;20315;-59
2023/03/25 17:49:39;;;;;;;15.38;1.75;;;;;;;12.12;83.05;99630.50;8343162;28;20037;-57
2023/03/25 17:53:40;;;;;;;9.15;1.95;;;;;;;12.20;82.43;99633.22;8345991;28;20033;-59
2023/03/25 17:57:41;;;;;;;9.13;1.80;;;;;;;12.31;80.76;99643.66;8328131;28;20042;-59
2023/03/25 18:01:42;;;;;;;15.52;1.90;;;;;;;12.31;80.65;99651.78;8326665;28;20445;-58
2023/03/25 18:05:43;;;;;;;10.52;2.15;;;;;;;12.40;79.37;99650.75;8326833;28;20033;-57
2023/03/25 18:09:43;;;;;;;16.92;5.60;;;;;;;12.47;79.15;99657.19;8332814;28;20046;-58
2023/03/25 18:13:46;;;;;;;11.10;2.33;;;;;;;12.50;79.65;99673.13;8305110;28;20041;-58
2023/03/25 18:17:49;;;;;;;14.75;2.72;;;;;;;12.31;81.87;99666.19;8307709;28;20034;-58
2023/03/25 18:21:49;;;;;;;12.45;2.38;;;;;;;12.13;82.72;99680.97;8341271;28;20029;-58
2023/03/25 18:25:50;;;;;;;13.20;2.05;;;;;;;12.28;79.96;99679.25;8298779;28;20054;-57
2023/03/25 18:29:51;;;;;;;12.18;1.73;;;;;;;12.51;76.36;99669.38;8323465;28;20052;-54
2023/03/25 18:33:52;;;;;;;12.73;2.38;;;;;;;12.62;75.91;99696.97;8297785;28;20048;-54
2023/03/25 18:37:52;;;;;;;14.10;1.88;;;;;;;12.65;77.49;99698.47;8305671;28;20085;-55
2023/03/25 18:41:53;;;;;;;9.98;1.77;;;;;;;12.33;82.09;99714.81;8337320;28;20297;-55
2023/03/25 18:45:53;;;;;;;9.23;1.73;;;;;;;12.04;85.33;99725.34;8286305;28;20579;-54
2023/03/25 18:49:54;;;;;;;16.67;2.50;;;;;;;11.97;82.11;99718.88;8310098;28;20390;-55
2023/03/25 18:53:54;;;;;;;11.90;2.60;;;;;;;12.54;75.75;99717.84;8280336;28;20092;-54
2023/03/25 18:57:55;;;;;;;15.98;2.95;;;;;;;12.78;73.30;99709.66;8293581;28;20092;-54
2023/03/25 19:01:55;;;;;;;13.45;2.58;;;;;;;12.69;74.46;99722.34;8298122;28;20041;-55
2023/03/25 19:05:58;;;;;;;17.67;2.88;;;;;;;12.59;75.49;99732.56;8322936;28;20049;-55
2023/03/25 19:09:58;;;;;;;18.25;3.20;;;;;;;12.59;74.97;99737.16;8308654;28;20046;-55
2023/03/25 19:13:59;;;;;;;14.93;2.85;;;;;;;12.54;75.54;99717.84;8275278;28;20120;-54
2023/03/25 19:18:00;;;;;;;14.32;2.80;;;;;;;12.45;76.39;99730.56;8269737;28;20545;-54
2023/03/25 19:22:01;;;;;;;11.00;2.25;;;;;;;12.47;76.13;99720.38;8308842;28;20041;-55
2023/03/25 19:26:02;;;;;;;15.20;2.75;;;;;;;12.51;75.37;99723.59;8299820;28;21270;-55
2023/03/25 19:30:06;;;;;;;17.67;2.60;;;;;;;12.50;74.93;99727.34;8299232;28;20152;-55
2023/03/25 19:34:08;;;;;;;16.20;3.40;;;;;;;12.45;75.14;99736.00;8293948;28;20060;-55
2023/03/25 19:38:08;;;;;;;19.33;3.05;;;;;;;12.39;75.67;99736.69;8271344;28;20048;-54
2023/03/25 19:42:09;;;;;;;16.00;2.63;;;;;;;12.38;75.18;99731.44;8318229;28;20057;-54
2023/03/25 19:46:10;;;;;;;12.05;2.55;;;;;;;12.29;75.84;99740.59;8296966;28;20552;-54
2023/03/25 19:50:13;;;;;;;18.30;2.80;;;;;;;12.26;76.25;99730.06;8292716;28;20386;-55